sensor_id;sensor_type;location;lat;lon;timestamp;P1;durP1;ratioP1;P2;durP2;ratioP2
31010;SDS011;26395;53.412;19.598;2023-04-08T00:03:37;15.20;;;8.20;;
31010;SDS011;26395;53.412;19.598;2023-04-08T00:18:41;17.70;;;10.20;;
31010;SDS011;26395;53.412;19.598;2023-04-08T00:33:44;16.10;;;8.80;;
31010;SDS011;26395;53.412;19.598;2023-04-08T00:48:47;16.80;;;8.60;;
31010;SDS011;26395;53.412;19.598;2023-04-08T01:19:33;22.70;;;10.80;;
31010;SDS011;26395;53.412;19.598;2023-04-08T01:34:40;15.60;;;9.50;;
31010;SDS011;26395;53.412;19.598;2023-04-08T01:49:45;17.10;;;8.90;;
31010;SDS011;26395;53.412;19.598;2023-04-08T02:04:49;17.60;;;9.70;;
31010;SDS011;26395;53.412;19.598;2023-04-08T02:19:56;26.00;;;13.20;;
31010;SDS011;26395;53.412;19.598;2023-04-08T02:35:10;25.80;;;12.60;;
31010;SDS011;26395;53.412;19.598;2023-04-08T02:50:14;17.80;;;9.10;;
31010;SDS011;26395;53.412;19.598;2023-04-08T03:05:18;19.20;;;9.60;;
31010;SDS011;26395;53.412;19.598;2023-04-08T03:20:22;17.00;;;9.30;;
31010;SDS011;26395;53.412;19.598;2023-04-08T03:35:25;14.00;;;8.50;;
31010;SDS011;26395;53.412;19.598;2023-04-08T03:50:29;14.80;;;8.60;;
31010;SDS011;26395;53.412;19.598;2023-04-08T04:05:32;17.30;;;9.70;;
31010;SDS011;26395;53.412;19.598;2023-04-08T04:20:38;58.70;;;31.80;;
31010;SDS011;26395;53.412;19.598;2023-04-08T04:35:42;47.80;;;34.70;;
31010;SDS011;26395;53.412;19.598;2023-04-08T04:50:53;82.60;;;37.60;;
31010;SDS011;26395;53.412;19.598;2023-04-08T05:06:00;20.10;;;12.10;;
31010;SDS011;26395;53.412;19.598;2023-04-08T05:21:03;24.50;;;12.20;;
31010;SDS011;26395;53.412;19.598;2023-04-08T05:36:06;17.60;;;10.80;;
31010;SDS011;26395;53.412;19.598;2023-04-08T05:51:13;18.40;;;11.60;;
31010;SDS011;26395;53.412;19.598;2023-04-08T06:06:18;22.30;;;13.10;;
31010;SDS011;26395;53.412;19.598;2023-04-08T06:21:21;58.50;;;29.10;;
31010;SDS011;26395;53.412;19.598;2023-04-08T06:36:39;81.90;;;32.30;;
31010;SDS011;26395;53.412;19.598;2023-04-08T06:51:42;222.00;;;63.70;;
31010;SDS011;26395;53.412;19.598;2023-04-08T07:06:45;246.70;;;99.20;;
31010;SDS011;26395;53.412;19.598;2023-04-08T07:21:49;58.00;;;25.30;;
31010;SDS011;26395;53.412;19.598;2023-04-08T07:36:52;75.30;;;28.50;;
31010;SDS011;26395;53.412;19.598;2023-04-08T07:51:55;298.60;;;124.50;;
31010;SDS011;26395;53.412;19.598;2023-04-08T08:06:59;42.00;;;20.60;;
31010;SDS011;26395;53.412;19.598;2023-04-08T08:22:02;19.60;;;13.70;;
31010;SDS011;26395;53.412;19.598;2023-04-08T08:37:05;47.10;;;25.00;;
31010;SDS011;26395;53.412;19.598;2023-04-08T08:52:09;16.70;;;12.10;;
31010;SDS011;26395;53.412;19.598;2023-04-08T09:07:13;31.10;;;17.80;;
31010;SDS011;26395;53.412;19.598;2023-04-08T09:22:16;21.80;;;14.30;;
31010;SDS011;26395;53.412;19.598;2023-04-08T09:37:19;18.80;;;12.60;;
31010;SDS011;26395;53.412;19.598;2023-04-08T09:52:23;27.70;;;16.00;;
31010;SDS011;26395;53.412;19.598;2023-04-08T10:07:44;18.80;;;12.40;;
31010;SDS011;26395;53.412;19.598;2023-04-08T10:22:47;19.40;;;12.40;;
31010;SDS011;26395;53.412;19.598;2023-04-08T10:37:51;19.40;;;13.40;;
31010;SDS011;26395;53.412;19.598;2023-04-08T10:52:55;21.50;;;13.70;;
31010;SDS011;26395;53.412;19.598;2023-04-08T11:07:58;22.20;;;15.10;;
31010;SDS011;26395;53.412;19.598;2023-04-08T11:23:11;23.50;;;14.80;;
31010;SDS011;26395;53.412;19.598;2023-04-08T11:38:20;24.80;;;17.10;;
31010;SDS011;26395;53.412;19.598;2023-04-08T11:53:25;40.70;;;24.50;;
31010;SDS011;26395;53.412;19.598;2023-04-08T12:08:28;13.90;;;10.60;;
31010;SDS011;26395;53.412;19.598;2023-04-08T12:23:31;17.50;;;11.10;;
31010;SDS011;26395;53.412;19.598;2023-04-08T12:38:35;20.50;;;13.20;;
31010;SDS011;26395;53.412;19.598;2023-04-08T12:53:39;13.70;;;11.00;;
31010;SDS011;26395;53.412;19.598;2023-04-08T13:08:42;20.20;;;13.70;;
31010;SDS011;26395;53.412;19.598;2023-04-08T13:23:45;14.60;;;9.50;;
31010;SDS011;26395;53.412;19.598;2023-04-08T13:38:48;29.50;;;18.80;;
31010;SDS011;26395;53.412;19.598;2023-04-08T13:53:52;12.00;;;8.50;;
31010;SDS011;26395;53.412;19.598;2023-04-08T14:08:56;12.60;;;9.50;;
31010;SDS011;26395;53.412;19.598;2023-04-08T14:23:59;18.40;;;13.80;;
31010;SDS011;26395;53.412;19.598;2023-04-08T14:39:04;9.60;;;8.50;;
31010;SDS011;26395;53.412;19.598;2023-04-08T14:54:07;138.60;;;96.60;;
31010;SDS011;26395;53.412;19.598;2023-04-08T15:09:10;14.70;;;13.10;;
31010;SDS011;26395;53.412;19.598;2023-04-08T15:24:14;36.50;;;21.00;;
31010;SDS011;26395;53.412;19.598;2023-04-08T15:39:18;23.80;;;16.80;;
31010;SDS011;26395;53.412;19.598;2023-04-08T15:54:21;28.90;;;19.80;;
31010;SDS011;26395;53.412;19.598;2023-04-08T16:09:24;79.10;;;47.70;;
31010;SDS011;26395;53.412;19.598;2023-04-08T16:24:29;30.30;;;18.00;;
31010;SDS011;26395;53.412;19.598;2023-04-08T16:39:32;23.50;;;15.20;;
31010;SDS011;26395;53.412;19.598;2023-04-08T16:54:35;29.30;;;20.50;;
31010;SDS011;26395;53.412;19.598;2023-04-08T17:09:39;103.00;;;50.80;;
31010;SDS011;26395;53.412;19.598;2023-04-08T17:24:42;66.60;;;38.30;;
31010;SDS011;26395;53.412;19.598;2023-04-08T17:39:49;143.90;;;81.60;;
31010;SDS011;26395;53.412;19.598;2023-04-08T17:54:53;168.40;;;84.10;;
31010;SDS011;26395;53.412;19.598;2023-04-08T18:09:57;138.00;;;68.00;;
31010;SDS011;26395;53.412;19.598;2023-04-08T18:25:01;131.80;;;67.30;;
31010;SDS011;26395;53.412;19.598;2023-04-08T18:40:16;109.10;;;57.00;;
31010;SDS011;26395;53.412;19.598;2023-04-08T18:55:32;126.70;;;62.10;;
31010;SDS011;26395;53.412;19.598;2023-04-08T19:10:42;209.70;;;96.90;;
31010;SDS011;26395;53.412;19.598;2023-04-08T19:25:46;293.00;;;122.70;;
31010;SDS011;26395;53.412;19.598;2023-04-08T19:40:50;215.40;;;98.20;;
31010;SDS011;26395;53.412;19.598;2023-04-08T19:55:58;305.60;;;128.90;;
31010;SDS011;26395;53.412;19.598;2023-04-08T20:11:03;123.20;;;59.50;;
31010;SDS011;26395;53.412;19.598;2023-04-08T20:26:06;80.30;;;42.00;;
31010;SDS011;26395;53.412;19.598;2023-04-08T20:41:11;113.20;;;54.90;;
31010;SDS011;26395;53.412;19.598;2023-04-08T20:56:20;81.90;;;45.20;;
31010;SDS011;26395;53.412;19.598;2023-04-08T21:11:25;87.60;;;44.10;;
31010;SDS011;26395;53.412;19.598;2023-04-08T21:26:30;80.90;;;41.00;;
31010;SDS011;26395;53.412;19.598;2023-04-08T21:41:34;85.70;;;44.00;;
31010;SDS011;26395;53.412;19.598;2023-04-08T21:56:37;53.10;;;26.70;;
31010;SDS011;26395;53.412;19.598;2023-04-08T22:11:40;47.70;;;24.90;;
31010;SDS011;26395;53.412;19.598;2023-04-08T22:26:45;61.10;;;29.30;;
31010;SDS011;26395;53.412;19.598;2023-04-08T22:41:49;52.90;;;25.30;;
31010;SDS011;26395;53.412;19.598;2023-04-08T22:56:52;51.70;;;26.60;;
31010;SDS011;26395;53.412;19.598;2023-04-08T23:11:55;50.30;;;25.60;;
31010;SDS011;26395;53.412;19.598;2023-04-08T23:27:00;69.30;;;32.80;;
31010;SDS011;26395;53.412;19.598;2023-04-08T23:42:04;62.70;;;33.20;;
31010;SDS011;26395;53.412;19.598;2023-04-08T23:57:07;45.00;;;23.20;;
